createdAt,value
2022-09-03T00:00:25.680Z,2.50
2022-09-03T00:03:39.784Z,2.13
2022-09-03T00:06:48.900Z,2.63
2022-09-03T00:10:00.905Z,2.60
2022-09-03T00:13:05.845Z,2.53
2022-09-03T00:16:10.643Z,2.90
2022-09-03T00:19:17.050Z,2.70
2022-09-03T00:22:23.872Z,2.47
2022-09-03T00:26:15.174Z,2.53
2022-09-03T00:29:20.339Z,2.20
2022-09-03T00:32:28.350Z,2.60
2022-09-03T00:35:41.250Z,2.60
2022-09-03T00:38:43.239Z,2.63
2022-09-03T00:42:08.132Z,2.70
2022-09-03T00:45:39.358Z,2.53
2022-09-03T00:49:11.974Z,2.80
2022-09-03T00:52:39.694Z,2.40
2022-09-03T00:56:02.790Z,2.80
2022-09-03T00:59:28.449Z,2.80
2022-09-03T01:02:34.417Z,3.20
2022-09-03T01:05:41.093Z,2.60
2022-09-03T01:08:49.273Z,2.93
2022-09-03T01:12:00.284Z,3.00
2022-09-03T01:15:16.201Z,2.93
2022-09-03T01:18:29.963Z,2.83
2022-09-03T01:21:31.796Z,2.87
2022-09-03T01:25:18.174Z,3.13
2022-09-03T01:28:31.959Z,2.63
2022-09-03T01:31:52.639Z,3.37
2022-09-03T01:35:53.314Z,2.63
2022-09-03T01:39:03.384Z,3.07
2022-09-03T01:42:21.361Z,2.93
2022-09-03T01:46:00.814Z,2.83
2022-09-03T01:49:12.135Z,2.80
2022-09-03T01:52:30.274Z,3.73
2022-09-03T01:55:35.176Z,4.00
2022-09-03T01:58:47.619Z,3.87
2022-09-03T02:02:09.192Z,3.00
2022-09-03T02:05:19.280Z,3.10
2022-09-03T02:08:21.385Z,3.40
2022-09-03T02:11:23.619Z,3.10
2022-09-03T02:14:27.204Z,3.33
2022-09-03T02:17:29.224Z,3.00
2022-09-03T02:20:31.611Z,3.00
2022-09-03T02:23:33.799Z,2.83
2022-09-03T02:26:36.239Z,2.87
2022-09-03T02:29:38.179Z,2.60
2022-09-03T02:32:40.403Z,2.63
2022-09-03T02:35:42.719Z,3.20
2022-09-03T02:38:45.475Z,3.70
2022-09-03T02:41:54.299Z,3.27
2022-09-03T02:45:04.319Z,3.03
2022-09-03T02:48:06.180Z,2.77
2022-09-03T02:51:14.090Z,2.60
2022-09-03T02:54:20.736Z,2.93
2022-09-03T02:57:27.771Z,3.03
2022-09-03T03:00:30.014Z,2.57
2022-09-03T03:03:32.105Z,2.80
2022-09-03T03:06:34.134Z,3.20
2022-09-03T03:09:36.004Z,3.17
2022-09-03T03:12:38.173Z,2.97
2022-09-03T03:15:40.615Z,2.93
2022-09-03T03:18:43.099Z,3.40
2022-09-03T03:21:45.075Z,3.40
2022-09-03T03:24:47.045Z,2.90
2022-09-03T03:27:49.055Z,3.10
2022-09-03T03:30:51.347Z,3.10
2022-09-03T03:33:55.459Z,3.57
2022-09-03T03:36:57.380Z,3.03
2022-09-03T03:39:59.845Z,4.33
2022-09-03T03:43:01.890Z,3.00
2022-09-03T03:46:05.645Z,3.17
2022-09-03T03:49:08.939Z,3.13
2022-09-03T03:52:11.184Z,3.30
2022-09-03T03:55:13.220Z,3.60
2022-09-03T03:58:17.988Z,3.23
2022-09-03T04:01:22.983Z,3.07
2022-09-03T04:04:24.959Z,3.13
2022-09-03T04:07:27.298Z,3.43
2022-09-03T04:10:29.158Z,3.47
2022-09-03T04:13:32.464Z,3.63
2022-09-03T04:16:34.423Z,3.17
2022-09-03T04:19:36.483Z,3.80
2022-09-03T04:22:38.498Z,3.10
2022-09-03T04:25:41.233Z,2.90
2022-09-03T04:28:43.355Z,3.00
2022-09-03T04:32:05.190Z,3.30
2022-09-03T04:35:07.395Z,2.80
2022-09-03T04:38:09.263Z,3.03
2022-09-03T04:41:14.398Z,3.07
2022-09-03T04:44:17.028Z,3.20
2022-09-03T04:47:19.239Z,2.73
2022-09-03T04:50:21.159Z,3.00
2022-09-03T04:53:23.259Z,3.00
2022-09-03T04:56:31.145Z,2.90
2022-09-03T04:59:33.013Z,3.13
2022-09-03T05:02:35.026Z,2.73
2022-09-03T05:05:37.029Z,3.10
2022-09-03T05:08:39.233Z,3.17
2022-09-03T05:11:41.274Z,2.70
2022-09-03T05:14:43.580Z,2.80
2022-09-03T05:17:45.528Z,3.07
2022-09-03T05:20:47.424Z,2.57
2022-09-03T05:23:53.370Z,2.80
2022-09-03T05:26:55.698Z,2.80
2022-09-03T05:29:57.652Z,2.63
2022-09-03T05:32:59.669Z,2.80
2022-09-03T05:36:03.863Z,2.97
2022-09-03T05:39:06.342Z,2.60
2022-09-03T05:42:08.263Z,2.47
2022-09-03T05:45:11.404Z,2.83
2022-09-03T05:48:13.319Z,2.80
2022-09-03T05:51:17.306Z,2.67
2022-09-03T05:54:19.247Z,2.53
2022-09-03T05:57:21.159Z,2.23
2022-09-03T06:00:23.098Z,2.43
2022-09-03T06:03:26.000Z,2.60
2022-09-03T06:06:29.769Z,2.40
2022-09-03T06:09:31.683Z,3.07
2022-09-03T06:12:33.564Z,2.23
2022-09-03T06:15:35.519Z,3.10
2022-09-03T06:18:37.552Z,2.50
2022-09-03T06:21:42.986Z,2.67
2022-09-03T06:24:44.943Z,2.30
2022-09-03T06:27:47.949Z,2.43
2022-09-03T06:30:49.945Z,2.87
2022-09-03T06:33:53.362Z,2.77
2022-09-03T06:36:55.270Z,2.70
2022-09-03T06:39:57.280Z,2.93
2022-09-03T06:43:03.488Z,2.90
2022-09-03T06:46:07.394Z,2.60
2022-09-03T06:49:10.431Z,2.67
2022-09-03T06:52:12.359Z,2.87
2022-09-03T06:55:14.367Z,3.20
2022-09-03T06:58:17.359Z,2.83
2022-09-03T07:01:21.808Z,2.93
2022-09-03T07:04:27.903Z,2.90
2022-09-03T07:07:31.536Z,2.87
2022-09-03T07:10:37.773Z,2.57
2022-09-03T07:13:45.378Z,3.03
2022-09-03T07:16:49.011Z,3.00
2022-09-03T07:19:50.919Z,2.30
2022-09-03T07:22:57.073Z,2.33
2022-09-03T07:26:01.620Z,2.37
2022-09-03T07:29:03.686Z,2.40
2022-09-03T07:32:05.795Z,2.20
2022-09-03T07:35:08.879Z,2.60
2022-09-03T07:38:11.627Z,1.97
2022-09-03T07:41:23.902Z,2.10
2022-09-03T07:44:31.288Z,2.40
2022-09-03T07:47:34.818Z,2.13
2022-09-03T07:50:39.519Z,2.27
2022-09-03T07:53:41.504Z,2.40
2022-09-03T07:56:43.403Z,2.23
2022-09-03T07:59:45.380Z,2.40
2022-09-03T08:02:47.349Z,2.38
2022-09-03T08:05:49.472Z,2.22
2022-09-03T08:09:05.257Z,2.38
2022-09-03T08:12:07.837Z,2.20
2022-09-03T08:15:09.959Z,2.67
2022-09-03T08:18:12.703Z,2.40
2022-09-03T08:21:17.642Z,2.35
2022-09-03T08:24:22.064Z,2.20
2022-09-03T08:27:25.630Z,2.45
2022-09-03T08:30:28.259Z,2.40
2022-09-03T08:33:39.490Z,2.80
2022-09-03T08:36:44.754Z,2.25
2022-09-03T08:39:46.709Z,2.47
2022-09-03T08:43:19.148Z,2.20
2022-09-03T08:46:22.414Z,2.35
2022-09-03T08:49:46.799Z,2.42
2022-09-03T08:52:52.553Z,2.53
2022-09-03T08:55:58.485Z,2.60
2022-09-03T08:59:02.023Z,2.72
2022-09-03T09:02:15.457Z,2.40
2022-09-03T09:05:48.304Z,2.88
2022-09-03T09:09:18.788Z,2.80
2022-09-03T09:13:06.083Z,2.97
2022-09-03T09:16:41.799Z,2.50
2022-09-03T09:20:04.169Z,2.35
2022-09-03T09:23:26.423Z,2.40
2022-09-03T09:26:49.669Z,2.33
2022-09-03T09:30:14.675Z,2.35
2022-09-03T09:33:36.919Z,2.60
2022-09-03T09:36:59.284Z,2.40
2022-09-03T09:40:45.014Z,2.45
2022-09-03T09:44:07.936Z,2.63
2022-09-03T09:47:33.040Z,2.80
2022-09-03T09:51:12.324Z,2.50
2022-09-03T09:54:34.551Z,2.50
2022-09-03T09:58:14.004Z,2.42
2022-09-03T10:01:45.819Z,2.40
2022-09-03T10:05:19.820Z,2.30
2022-09-03T10:08:43.069Z,2.28
2022-09-03T10:12:25.179Z,2.65
2022-09-03T10:16:11.786Z,2.45
2022-09-03T10:20:21.099Z,2.40
2022-09-03T10:23:52.733Z,3.00
2022-09-03T10:27:17.163Z,2.67
2022-09-03T10:31:31.945Z,2.70
2022-09-03T10:35:22.098Z,2.50
2022-09-03T10:38:48.219Z,2.50
2022-09-03T10:42:37.622Z,2.55
2022-09-03T10:46:11.578Z,2.60
2022-09-03T10:49:59.349Z,2.20
2022-09-03T10:53:47.018Z,2.72
2022-09-03T10:57:31.038Z,2.90
2022-09-03T11:00:59.088Z,2.45
2022-09-03T11:04:24.223Z,3.08
2022-09-03T11:08:25.210Z,3.00
2022-09-03T11:12:00.213Z,2.75
2022-09-03T11:15:46.202Z,2.78
2022-09-03T11:19:11.969Z,2.58
2022-09-03T11:22:34.538Z,2.90
2022-09-03T11:26:00.698Z,3.30
2022-09-03T11:29:46.743Z,2.88
2022-09-03T11:33:10.880Z,3.20
2022-09-03T11:36:39.003Z,2.40
2022-09-03T11:40:08.413Z,3.10
2022-09-03T11:43:36.098Z,2.90
2022-09-03T11:46:59.113Z,3.38
2022-09-03T11:50:28.496Z,2.90
2022-09-03T11:54:03.000Z,3.33
2022-09-03T11:57:33.833Z,3.15
2022-09-03T12:00:57.558Z,3.58
2022-09-03T12:04:28.502Z,3.33
2022-09-03T12:08:17.208Z,3.30
2022-09-03T12:12:18.189Z,2.88
2022-09-03T12:16:18.380Z,3.25
2022-09-03T12:19:56.813Z,3.13
2022-09-03T12:23:43.463Z,3.22
2022-09-03T12:27:06.011Z,3.50
2022-09-03T12:30:30.590Z,3.05
2022-09-03T12:34:13.203Z,3.30
2022-09-03T12:41:27.985Z,2.70
2022-09-03T12:44:50.543Z,2.75
2022-09-03T12:48:17.005Z,2.90
2022-09-03T12:51:52.280Z,3.50
2022-09-03T12:55:48.333Z,3.05
2022-09-03T12:59:14.199Z,3.58
2022-09-03T13:02:58.878Z,3.55
2022-09-03T13:06:23.374Z,3.17
2022-09-03T13:09:47.068Z,3.55
2022-09-03T13:13:23.268Z,3.35
2022-09-03T13:16:45.609Z,3.67
2022-09-03T13:20:25.519Z,3.28
2022-09-03T13:24:06.398Z,3.55
2022-09-03T13:28:07.419Z,3.65
2022-09-03T13:31:35.287Z,3.08
2022-09-03T13:35:26.928Z,3.45
2022-09-03T13:38:54.493Z,3.20
2022-09-03T13:42:19.353Z,3.65
2022-09-03T13:45:46.210Z,3.78
2022-09-03T13:49:54.284Z,3.50
2022-09-03T13:53:25.914Z,3.53
2022-09-03T13:57:17.698Z,3.65
2022-09-03T14:00:46.824Z,3.72
2022-09-03T14:04:18.495Z,3.42
2022-09-03T14:07:58.723Z,3.13
2022-09-03T14:11:50.064Z,2.85
2022-09-03T14:15:23.658Z,2.60
2022-09-03T14:18:47.816Z,2.60
2022-09-03T14:22:15.679Z,2.65
2022-09-03T14:25:42.798Z,2.67
2022-09-03T14:29:17.206Z,2.40
2022-09-03T14:33:26.639Z,2.58
2022-09-03T14:37:22.520Z,2.80
2022-09-03T14:41:10.841Z,2.65
2022-09-03T14:45:13.305Z,3.03
2022-09-03T14:48:57.326Z,2.38
2022-09-03T14:52:36.509Z,3.17
2022-09-03T14:56:05.359Z,3.17
2022-09-03T15:00:19.854Z,3.28
2022-09-03T15:04:21.101Z,3.10
2022-09-03T15:07:50.234Z,3.25
2022-09-03T15:11:23.243Z,2.83
2022-09-03T15:14:59.887Z,2.70
2022-09-03T15:18:38.529Z,2.90
2022-09-03T15:22:10.449Z,3.42
2022-09-03T15:25:58.977Z,3.22
2022-09-03T15:29:33.235Z,2.90
2022-09-03T15:32:55.445Z,2.83
2022-09-03T15:36:22.899Z,3.28
2022-09-03T15:39:47.383Z,2.90
2022-09-03T15:43:16.726Z,3.33
2022-09-03T15:46:57.036Z,2.78
2022-09-03T15:50:37.875Z,3.10
2022-09-03T15:54:17.014Z,3.25
2022-09-03T15:58:11.485Z,3.25
2022-09-03T16:01:54.300Z,3.40
2022-09-03T16:05:49.860Z,3.13
2022-09-03T16:09:57.481Z,3.47
2022-09-03T16:13:35.364Z,2.88
2022-09-03T16:17:00.794Z,3.65
2022-09-03T16:20:27.177Z,3.30
2022-09-03T16:24:03.134Z,4.82
2022-09-03T16:27:31.034Z,3.58
2022-09-03T16:31:10.675Z,1.98
2022-09-03T16:34:48.047Z,1.10
2022-09-03T16:38:14.494Z,0.40
2022-09-03T16:41:50.144Z,0.60
2022-09-03T16:45:29.767Z,0.70
2022-09-03T16:49:23.589Z,1.53
2022-09-03T16:53:28.665Z,5.13
2022-09-03T16:57:01.899Z,2.07
2022-09-03T17:00:28.790Z,1.10
2022-09-03T17:04:13.296Z,1.00
2022-09-03T17:08:01.244Z,1.73
2022-09-03T17:11:51.339Z,0.63
2022-09-03T17:15:43.266Z,1.40
2022-09-03T17:19:35.701Z,1.70
2022-09-03T17:23:06.924Z,1.10
2022-09-03T17:27:04.353Z,1.70
2022-09-03T17:30:55.885Z,0.93
2022-09-03T17:34:26.960Z,1.53
2022-09-03T17:38:10.626Z,1.73
2022-09-03T17:41:55.118Z,1.00
2022-09-03T17:45:29.474Z,0.70
2022-09-03T17:48:56.284Z,1.13
2022-09-03T17:52:38.161Z,1.33
2022-09-03T17:56:10.239Z,3.37
2022-09-03T17:59:47.795Z,2.43
2022-09-03T18:03:21.539Z,1.97
2022-09-03T18:06:57.475Z,1.57
2022-09-03T18:10:33.174Z,1.30
2022-09-03T18:13:58.357Z,1.00
2022-09-03T18:17:58.187Z,1.00
2022-09-03T18:21:41.883Z,0.70
2022-09-03T18:25:23.094Z,0.60
2022-09-03T18:29:09.059Z,0.80
2022-09-03T18:32:49.733Z,1.40
2022-09-03T18:36:32.323Z,0.60
2022-09-03T18:40:12.899Z,0.60
2022-09-03T18:44:00.434Z,0.70
2022-09-03T19:06:13.275Z,0.50
2022-09-03T19:10:07.610Z,0.57
2022-09-03T19:13:54.928Z,0.80
2022-09-03T19:18:10.170Z,0.40
2022-09-03T19:22:27.194Z,1.00
2022-09-03T19:26:08.181Z,0.80
2022-09-03T19:30:29.519Z,1.13
2022-09-03T19:34:42.454Z,0.60
2022-09-03T19:38:29.489Z,0.70
2022-09-03T19:42:19.708Z,0.70
2022-09-03T19:46:29.055Z,0.90
2022-09-03T19:50:21.215Z,0.80
2022-09-03T19:54:02.581Z,1.10
2022-09-03T19:57:43.918Z,0.70
2022-09-03T20:01:28.266Z,0.50
2022-09-03T20:05:09.394Z,0.60
2022-09-03T20:08:52.252Z,0.80
2022-09-03T20:12:17.719Z,0.60
2022-09-03T20:16:00.450Z,1.23
2022-09-03T20:19:37.053Z,1.53
2022-09-03T20:23:31.081Z,0.67
2022-09-03T20:27:13.643Z,0.60
2022-09-03T20:30:48.966Z,0.53
2022-09-03T20:34:46.600Z,0.80
2022-09-03T20:38:30.143Z,0.80
2022-09-03T20:42:03.528Z,0.53
2022-09-03T20:45:33.125Z,0.70
2022-09-03T20:49:09.031Z,0.90
2022-09-03T20:52:45.952Z,1.10
2022-09-03T20:56:36.038Z,0.60
2022-09-03T21:00:15.295Z,0.50
2022-09-03T21:03:52.668Z,0.97
2022-09-03T21:07:26.108Z,1.07
2022-09-03T21:10:55.455Z,0.93
2022-09-03T21:14:34.964Z,1.13
2022-09-03T21:18:00.403Z,0.90
2022-09-03T21:21:45.378Z,0.90
2022-09-03T21:25:17.769Z,0.80
2022-09-03T21:28:42.424Z,0.70
2022-09-03T21:32:11.128Z,0.67
2022-09-03T21:35:36.414Z,0.73
2022-09-03T21:39:08.664Z,0.90
2022-09-03T21:42:38.503Z,0.90
2022-09-03T21:46:07.031Z,0.83
2022-09-03T21:49:34.629Z,0.70
2022-09-03T21:53:07.849Z,0.70
2022-09-03T21:57:12.497Z,0.57
2022-09-03T22:00:34.691Z,0.73
2022-09-03T22:03:57.615Z,0.60
2022-09-03T22:07:57.475Z,0.60
2022-09-03T22:11:45.968Z,0.53
2022-09-03T22:15:11.743Z,0.60
2022-09-03T22:18:39.581Z,0.90
2022-09-03T22:22:03.225Z,0.90
2022-09-03T22:26:07.629Z,0.60
2022-09-03T22:29:54.374Z,0.80
2022-09-03T22:33:27.755Z,0.60
2022-09-03T22:37:16.788Z,0.90
2022-09-03T22:40:50.715Z,0.60
2022-09-03T22:44:18.019Z,0.80
2022-09-03T22:48:10.894Z,0.60
2022-09-03T22:51:46.304Z,0.67
2022-09-03T22:55:23.341Z,0.50
2022-09-03T22:58:52.068Z,0.70
2022-09-03T23:02:22.888Z,0.53
2022-09-03T23:06:04.119Z,0.60
2022-09-03T23:09:30.574Z,0.80
2022-09-03T23:13:08.641Z,0.60
2022-09-03T23:16:41.660Z,0.60
2022-09-03T23:20:16.238Z,0.50
2022-09-03T23:23:46.609Z,0.70
2022-09-03T23:27:14.644Z,0.70
2022-09-03T23:30:37.343Z,0.50
2022-09-03T23:34:00.004Z,0.60
2022-09-03T23:37:57.823Z,0.83
2022-09-03T23:41:37.608Z,0.60
2022-09-03T23:45:15.742Z,0.67
2022-09-03T23:48:58.318Z,0.60
2022-09-03T23:53:22.139Z,0.93
2022-09-03T23:56:51.093Z,0.70
